createdAt,value
2018-07-30T00:06:25.225Z,77.15
2018-07-30T00:08:53.883Z,76.87
2018-07-30T00:11:22.544Z,77.42
2018-07-30T00:13:51.234Z,77.59
2018-07-30T00:16:19.892Z,76.89
2018-07-30T00:18:48.663Z,77.79
2018-07-30T00:21:17.360Z,77.42
2018-07-30T00:23:46.082Z,77.40
2018-07-30T00:26:14.717Z,77.65
2018-07-30T00:28:43.802Z,77.30
2018-07-30T00:31:12.461Z,77.06
2018-07-30T00:33:41.131Z,77.72
2018-07-30T00:36:09.866Z,77.13
2018-07-30T00:38:38.568Z,77.82
2018-07-30T00:41:07.213Z,77.23
2018-07-30T00:43:35.886Z,77.35
2018-07-30T00:46:05.053Z,76.94
2018-07-30T00:48:34.742Z,77.06
2018-07-30T00:51:03.498Z,76.45
2018-07-30T00:53:32.175Z,76.58
2018-07-30T00:56:00.851Z,76.95
2018-07-30T00:58:29.513Z,76.39
2018-07-30T01:00:58.177Z,77.17
2018-07-30T01:03:27.166Z,76.87
2018-07-30T01:05:55.853Z,77.36
2018-07-30T01:08:24.510Z,77.64
2018-07-30T01:10:53.161Z,78.00
2018-07-30T01:13:21.835Z,77.91
2018-07-30T01:15:50.473Z,78.24
2018-07-30T01:18:19.119Z,77.66
2018-07-30T01:20:47.818Z,77.57
2018-07-30T01:23:16.459Z,77.43
2018-07-30T01:25:45.234Z,77.63
2018-07-30T01:28:13.859Z,77.10
2018-07-30T01:30:42.519Z,76.94
2018-07-30T01:33:11.205Z,75.97
2018-07-30T01:35:39.864Z,76.42
2018-07-30T01:38:08.499Z,77.03
2018-07-30T01:40:37.126Z,77.11
2018-07-30T01:43:05.844Z,76.53
2018-07-30T01:45:34.511Z,77.02
2018-07-30T01:48:03.134Z,77.57
2018-07-30T01:50:31.770Z,77.87
2018-07-30T01:53:00.450Z,77.82
2018-07-30T01:55:29.158Z,77.36
2018-07-30T01:57:57.822Z,77.70
2018-07-30T02:00:26.470Z,77.91
2018-07-30T02:02:55.173Z,78.20
2018-07-30T02:05:23.843Z,77.88
2018-07-30T02:07:52.491Z,78.37
2018-07-30T02:10:21.143Z,78.39
2018-07-30T02:12:49.856Z,78.26
2018-07-30T02:15:18.483Z,78.36
2018-07-30T02:17:47.187Z,78.19
2018-07-30T02:20:15.918Z,78.47
2018-07-30T02:22:44.564Z,78.32
2018-07-30T02:25:13.251Z,78.39
2018-07-30T02:27:41.935Z,78.35
2018-07-30T02:30:10.588Z,78.14
2018-07-30T02:32:39.238Z,78.00
2018-07-30T02:35:09.086Z,77.97
2018-07-30T02:37:37.824Z,77.71
2018-07-30T02:40:07.196Z,77.95
2018-07-30T02:42:35.911Z,78.35
2018-07-30T02:45:05.408Z,77.99
2018-07-30T02:47:34.063Z,77.96
2018-07-30T02:50:02.985Z,77.89
2018-07-30T02:52:31.969Z,78.23
2018-07-30T02:55:00.664Z,78.32
2018-07-30T02:57:29.329Z,78.37
2018-07-30T02:59:58.027Z,78.26
2018-07-30T03:02:26.715Z,77.94
2018-07-30T03:04:55.376Z,78.39
2018-07-30T03:07:24.065Z,78.16
2018-07-30T03:09:52.782Z,78.05
2018-07-30T03:12:21.451Z,78.42
2018-07-30T03:14:50.171Z,78.44
2018-07-30T03:17:18.807Z,78.67
2018-07-30T03:19:47.478Z,78.56
2018-07-30T03:22:16.461Z,78.79
2018-07-30T03:24:45.195Z,78.78
2018-07-30T03:27:13.836Z,78.68
2018-07-30T03:29:42.541Z,78.90
2018-07-30T03:32:11.226Z,78.93
2018-07-30T03:34:39.881Z,78.84
2018-07-30T03:37:08.528Z,78.51
2018-07-30T03:39:37.168Z,78.96
2018-07-30T03:42:06.188Z,78.93
2018-07-30T03:44:34.823Z,78.54
2018-07-30T03:47:03.461Z,78.64
2018-07-30T03:49:32.112Z,78.49
2018-07-30T03:52:00.754Z,78.48
2018-07-30T03:54:29.405Z,78.47
2018-07-30T03:56:58.066Z,78.83
2018-07-30T03:59:26.770Z,79.06
2018-07-30T04:01:55.492Z,78.75
2018-07-30T04:04:24.138Z,79.34
2018-07-30T04:06:52.917Z,78.80
2018-07-30T04:09:21.659Z,78.92
2018-07-30T04:11:50.311Z,78.66
2018-07-30T04:14:19.018Z,78.36
2018-07-30T04:16:50.529Z,78.73
2018-07-30T04:19:19.763Z,78.59
2018-07-30T04:21:48.490Z,78.55
2018-07-30T04:24:17.222Z,78.37
2018-07-30T04:26:46.917Z,78.28
2018-07-30T04:29:16.495Z,78.30
2018-07-30T04:31:45.299Z,78.31
2018-07-30T04:34:14.010Z,78.22
2018-07-30T04:36:42.658Z,78.47
2018-07-30T04:39:15.401Z,78.49
2018-07-30T04:41:44.699Z,77.97
2018-07-30T04:44:13.475Z,78.46
2018-07-30T04:46:42.155Z,78.00
2018-07-30T04:49:10.830Z,78.02
2018-07-30T04:51:39.544Z,77.75
2018-07-30T04:54:08.244Z,77.43
2018-07-30T04:56:36.910Z,76.90
2018-07-30T04:59:05.613Z,77.15
2018-07-30T05:01:34.369Z,76.92
2018-07-30T05:04:03.107Z,76.74
2018-07-30T05:06:31.822Z,77.38
2018-07-30T05:09:00.500Z,77.66
2018-07-30T05:11:29.142Z,77.41
2018-07-30T05:13:57.803Z,77.66
2018-07-30T05:16:26.435Z,77.97
2018-07-30T05:18:55.533Z,77.16
2018-07-30T05:21:24.235Z,77.30
2018-07-30T05:23:52.887Z,77.58
2018-07-30T05:26:21.567Z,78.02
2018-07-30T05:28:50.221Z,77.27
2018-07-30T05:31:18.912Z,77.27
2018-07-30T05:33:47.593Z,77.67
2018-07-30T05:36:16.279Z,77.07
2018-07-30T05:38:44.955Z,77.23
2018-07-30T05:41:13.622Z,76.81
2018-07-30T05:43:42.388Z,77.42
2018-07-30T05:46:11.102Z,77.05
2018-07-30T05:48:39.962Z,77.04
2018-07-30T05:51:08.662Z,76.21
2018-07-30T05:53:37.312Z,75.54
2018-07-30T05:56:08.005Z,75.87
2018-07-30T05:58:37.718Z,76.33
2018-07-30T06:01:06.487Z,75.36
2018-07-30T06:03:35.162Z,75.60
2018-07-30T06:06:03.888Z,74.58
2018-07-30T06:08:32.563Z,74.30
2018-07-30T06:11:01.343Z,75.48
2018-07-30T06:13:30.495Z,75.87
2018-07-30T06:15:59.231Z,75.66
2018-07-30T06:18:27.958Z,76.12
2018-07-30T06:20:56.724Z,75.64
2018-07-30T06:23:25.446Z,76.58
2018-07-30T06:25:54.195Z,76.19
2018-07-30T06:28:22.867Z,76.75
2018-07-30T06:30:51.576Z,76.06
2018-07-30T06:33:20.352Z,75.22
2018-07-30T06:35:49.106Z,75.26
2018-07-30T06:38:18.832Z,75.00
2018-07-30T06:40:47.556Z,75.74
2018-07-30T06:43:16.228Z,75.31
2018-07-30T06:45:45.243Z,75.33
2018-07-30T06:48:13.920Z,74.83
2018-07-30T06:50:42.651Z,74.70
2018-07-30T06:53:11.519Z,74.20
2018-07-30T06:55:40.175Z,75.23
2018-07-30T06:58:08.970Z,74.71
2018-07-30T07:00:37.684Z,73.65
2018-07-30T07:03:06.431Z,72.95
2018-07-30T07:05:35.186Z,74.08
2018-07-30T07:08:04.554Z,74.48
2018-07-30T07:10:33.534Z,76.19
2018-07-30T07:13:02.331Z,75.13
2018-07-30T07:15:31.015Z,74.24
2018-07-30T07:17:59.806Z,74.54
2018-07-30T07:20:28.442Z,76.18
2018-07-30T07:22:57.115Z,75.54
2018-07-30T07:25:25.933Z,75.33
2018-07-30T07:27:54.600Z,74.72
2018-07-30T07:30:23.366Z,75.49
2018-07-30T07:32:52.118Z,76.00
2018-07-30T07:35:20.845Z,75.88
2018-07-30T07:37:49.620Z,76.38
2018-07-30T07:40:18.315Z,76.46
2018-07-30T07:42:47.041Z,75.76
2018-07-30T07:45:15.791Z,75.04
2018-07-30T07:47:44.459Z,77.20
2018-07-30T07:50:13.305Z,77.37
2018-07-30T07:52:41.944Z,78.42
2018-07-30T07:55:10.802Z,77.94
2018-07-30T07:57:39.505Z,76.44
2018-07-30T08:00:10.112Z,76.79
2018-07-30T08:02:38.832Z,76.87
2018-07-30T08:07:36.240Z,76.32
2018-07-30T08:10:05.541Z,76.14
2018-07-30T08:12:34.284Z,76.31
2018-07-30T08:15:03.023Z,75.67
2018-07-30T08:17:31.755Z,75.52
2018-07-30T08:20:00.435Z,75.79
2018-07-30T08:22:29.162Z,74.38
2018-07-30T08:24:57.856Z,74.18
2018-07-30T08:27:26.562Z,73.62
2018-07-30T08:29:55.806Z,72.70
2018-07-30T08:32:24.460Z,73.73
2018-07-30T08:34:53.203Z,72.68
2018-07-30T08:37:21.923Z,72.87
2018-07-30T08:39:50.586Z,72.06
2018-07-30T08:42:19.321Z,71.02
2018-07-30T08:44:47.968Z,70.43
2018-07-30T08:47:16.659Z,70.49
2018-07-30T08:49:45.740Z,67.76
2018-07-30T08:52:14.479Z,68.84
2018-07-30T08:54:43.144Z,67.12
2018-07-30T08:57:11.839Z,67.10
2018-07-30T08:59:40.595Z,67.65
2018-07-30T09:02:09.357Z,67.26
2018-07-30T09:04:38.052Z,66.31
2018-07-30T09:07:06.780Z,66.10
2018-07-30T09:09:35.499Z,66.35
2018-07-30T09:12:04.211Z,65.41
2018-07-30T09:14:32.891Z,63.47
2018-07-30T09:17:01.659Z,64.81
2018-07-30T09:19:30.414Z,64.22
2018-07-30T09:21:59.100Z,63.59
2018-07-30T09:24:27.738Z,63.51
2018-07-30T09:26:56.427Z,61.69
2018-07-30T09:29:25.065Z,65.04
2018-07-30T09:31:53.751Z,66.27
2018-07-30T09:34:22.383Z,69.06
2018-07-30T09:36:51.054Z,68.42
2018-07-30T09:39:19.775Z,69.82
2018-07-30T09:41:48.434Z,70.71
2018-07-30T09:44:17.111Z,71.44
2018-07-30T09:46:45.818Z,69.91
2018-07-30T09:49:14.497Z,69.33
2018-07-30T09:51:43.268Z,69.53
2018-07-30T09:54:11.947Z,68.67
2018-07-30T09:56:40.634Z,64.86
2018-07-30T09:59:09.339Z,61.66
2018-07-30T10:01:38.277Z,61.00
2018-07-30T10:04:06.997Z,62.23
2018-07-30T10:06:35.651Z,58.89
2018-07-30T10:09:06.732Z,60.39
2018-07-30T10:11:35.376Z,60.21
2018-07-30T10:14:04.249Z,62.54
2018-07-30T10:16:32.951Z,62.28
2018-07-30T10:19:01.686Z,62.02
2018-07-30T10:21:30.345Z,61.26
2018-07-30T10:23:59.237Z,62.39
2018-07-30T10:26:27.951Z,62.37
2018-07-30T10:28:56.609Z,62.79
2018-07-30T10:31:25.347Z,63.94
2018-07-30T10:33:54.375Z,62.59
2018-07-30T10:36:23.056Z,63.19
2018-07-30T10:38:51.744Z,64.19
2018-07-30T10:41:20.393Z,62.36
2018-07-30T10:43:49.186Z,64.09
2018-07-30T10:46:17.821Z,60.46
2018-07-30T10:48:46.551Z,63.64
2018-07-30T10:51:15.215Z,64.31
2018-07-30T10:53:43.946Z,66.23
2018-07-30T10:56:12.575Z,64.92
2018-07-30T10:58:41.392Z,64.96
2018-07-30T11:01:10.068Z,65.64
2018-07-30T11:03:38.748Z,64.81
2018-07-30T11:06:07.418Z,63.66
2018-07-30T11:08:36.127Z,62.48
2018-07-30T11:11:04.863Z,62.55
2018-07-30T11:13:33.666Z,62.39
2018-07-30T11:16:02.337Z,62.40
2018-07-30T11:18:31.062Z,62.15
2018-07-30T11:20:59.771Z,61.44
2018-07-30T11:23:28.434Z,60.15
2018-07-30T11:25:57.100Z,59.13
2018-07-30T11:28:25.798Z,57.06
2018-07-30T11:30:54.520Z,58.51
2018-07-30T11:33:23.162Z,58.78
2018-07-30T11:35:51.845Z,60.34
2018-07-30T11:38:20.517Z,62.61
2018-07-30T11:40:49.209Z,66.43
2018-07-30T11:43:17.937Z,67.93
2018-07-30T11:45:46.714Z,68.08
2018-07-30T11:48:15.411Z,68.67
2018-07-30T11:50:44.562Z,68.21
2018-07-30T11:53:13.247Z,67.27
2018-07-30T11:55:41.926Z,66.68
2018-07-30T11:58:10.626Z,66.04
2018-07-30T12:00:39.409Z,65.65
2018-07-30T12:03:08.132Z,65.19
2018-07-30T12:05:36.847Z,67.25
2018-07-30T12:08:05.577Z,65.53
2018-07-30T12:10:34.293Z,66.41
2018-07-30T12:13:02.977Z,66.44
2018-07-30T12:15:31.659Z,64.76
2018-07-30T12:18:00.387Z,64.67
2018-07-30T12:20:29.072Z,65.58
2018-07-30T12:22:57.833Z,63.99
2018-07-30T12:25:26.769Z,63.53
2018-07-30T12:27:56.376Z,62.80
2018-07-30T12:30:25.174Z,63.34
2018-07-30T12:32:53.831Z,61.74
2018-07-30T12:35:22.506Z,62.89
2018-07-30T12:37:51.176Z,62.62
2018-07-30T12:40:19.940Z,61.21
2018-07-30T12:42:48.566Z,61.71
2018-07-30T12:45:21.317Z,60.00
2018-07-30T12:47:50.080Z,58.88
2018-07-30T12:50:18.836Z,59.45
2018-07-30T12:52:47.593Z,59.50
2018-07-30T12:55:16.284Z,60.22
2018-07-30T12:57:44.944Z,60.80
2018-07-30T13:00:13.622Z,59.74
2018-07-30T13:02:42.302Z,58.75
2018-07-30T13:05:11.009Z,58.59
2018-07-30T13:07:39.659Z,56.99
2018-07-30T13:10:08.433Z,54.31
2018-07-30T13:12:37.075Z,54.03
2018-07-30T13:15:05.831Z,54.76
2018-07-30T13:17:34.655Z,54.42
2018-07-30T13:20:03.436Z,54.32
2018-07-30T13:22:32.061Z,54.59
2018-07-30T13:25:00.794Z,54.00
2018-07-30T13:27:29.457Z,52.24
2018-07-30T13:29:58.143Z,51.81
2018-07-30T13:32:26.790Z,49.86
2018-07-30T13:34:55.447Z,49.36
2018-07-30T13:37:24.291Z,48.26
2018-07-30T13:39:52.961Z,48.84
2018-07-30T13:42:21.626Z,47.99
2018-07-30T13:44:50.370Z,48.65
2018-07-30T13:47:19.010Z,47.78
2018-07-30T13:49:47.618Z,48.37
2018-07-30T13:52:16.270Z,49.20
2018-07-30T13:54:45.015Z,49.20
2018-07-30T13:57:13.679Z,51.43
2018-07-30T13:59:42.357Z,50.98
2018-07-30T14:02:10.992Z,50.93
2018-07-30T14:04:39.610Z,51.40
2018-07-30T14:07:08.349Z,52.19
2018-07-30T14:09:37.066Z,51.33
2018-07-30T14:12:05.721Z,51.89
2018-07-30T14:14:34.419Z,51.19
2018-07-30T14:17:03.078Z,50.67
2018-07-30T14:19:31.758Z,52.19
2018-07-30T14:22:00.410Z,49.45
2018-07-30T14:24:29.042Z,49.09
2018-07-30T14:26:57.656Z,50.30
2018-07-30T14:29:26.329Z,50.53
2018-07-30T14:31:54.996Z,51.23
2018-07-30T14:34:23.708Z,49.17
2018-07-30T14:36:52.461Z,48.37
2018-07-30T14:39:21.807Z,48.84
2018-07-30T14:41:50.511Z,46.00
2018-07-30T14:44:19.145Z,47.40
2018-07-30T14:46:47.754Z,46.73
2018-07-30T14:49:16.362Z,47.85
2018-07-30T14:51:45.086Z,48.55
2018-07-30T14:54:13.713Z,49.83
2018-07-30T14:56:42.437Z,51.40
2018-07-30T14:59:11.177Z,52.07
2018-07-30T15:01:39.742Z,53.23
2018-07-30T15:04:08.455Z,53.91
2018-07-30T15:06:37.231Z,54.14
2018-07-30T15:09:09.671Z,55.21
2018-07-30T15:11:38.752Z,56.07
2018-07-30T15:14:07.637Z,57.21
2018-07-30T15:16:36.743Z,56.28
2018-07-30T15:19:05.999Z,56.66
2018-07-30T15:21:34.595Z,58.29
2018-07-30T15:24:03.280Z,58.59
2018-07-30T15:26:31.902Z,58.74
2018-07-30T15:29:00.514Z,59.59
2018-07-30T15:31:29.126Z,60.30
2018-07-30T15:33:58.178Z,59.30
2018-07-30T15:36:26.883Z,58.52
2018-07-30T15:38:55.516Z,59.89
2018-07-30T15:41:24.138Z,60.42
2018-07-30T15:43:52.739Z,58.62
2018-07-30T15:46:21.362Z,58.43
2018-07-30T15:48:49.997Z,60.77
2018-07-30T15:51:18.638Z,60.96
2018-07-30T15:53:47.308Z,61.34
2018-07-30T15:56:16.480Z,61.56
2018-07-30T15:58:45.114Z,62.99
2018-07-30T16:01:13.782Z,63.59
2018-07-30T16:03:42.420Z,63.96
2018-07-30T16:06:11.044Z,64.83
2018-07-30T16:08:40.140Z,64.62
2018-07-30T16:11:08.899Z,64.50
2018-07-30T16:13:37.573Z,65.59
2018-07-30T16:16:06.374Z,65.37
2018-07-30T16:18:35.088Z,67.18
2018-07-30T16:21:03.822Z,68.10
2018-07-30T16:23:32.553Z,68.02
2018-07-30T16:26:01.203Z,67.72
2018-07-30T16:28:29.903Z,67.70
2018-07-30T16:30:58.576Z,67.05
2018-07-30T16:33:27.227Z,65.08
2018-07-30T16:35:55.884Z,65.16
2018-07-30T16:38:24.538Z,67.49
2018-07-30T16:40:53.231Z,67.25
2018-07-30T16:43:21.912Z,68.56
2018-07-30T16:45:50.631Z,69.68
2018-07-30T16:48:19.466Z,70.40
2018-07-30T16:50:48.101Z,71.69
2018-07-30T16:53:17.482Z,72.26
2018-07-30T16:55:46.171Z,72.92
2018-07-30T16:58:15.130Z,73.02
2018-07-30T17:00:43.840Z,73.86
2018-07-30T17:03:12.613Z,73.84
2018-07-30T17:05:41.299Z,72.63
2018-07-30T17:08:10.032Z,71.56
2018-07-30T17:10:38.632Z,71.52
2018-07-30T17:13:07.308Z,71.33
2018-07-30T17:15:36.113Z,70.74
2018-07-30T17:18:04.986Z,69.99
2018-07-30T17:20:34.222Z,69.66
2018-07-30T17:23:02.971Z,70.13
2018-07-30T17:25:31.595Z,72.58
2018-07-30T17:28:00.278Z,73.80
2018-07-30T17:30:28.967Z,71.68
2018-07-30T17:32:57.616Z,72.36
2018-07-30T17:35:26.320Z,71.73
2018-07-30T17:37:55.032Z,72.83
2018-07-30T17:40:23.754Z,70.44
2018-07-30T17:42:52.486Z,71.97
2018-07-30T17:45:21.210Z,72.24
2018-07-30T17:47:50.493Z,72.22
2018-07-30T17:50:21.746Z,74.23
2018-07-30T17:52:51.888Z,73.80
2018-07-30T17:55:20.653Z,74.07
2018-07-30T17:57:49.341Z,73.88
2018-07-30T18:00:18.035Z,74.61
2018-07-30T18:02:46.742Z,75.01
2018-07-30T18:05:18.382Z,74.61
2018-07-30T18:07:48.552Z,75.34
2018-07-30T18:10:17.269Z,75.23
2018-07-30T18:12:46.184Z,74.67
2018-07-30T18:15:15.039Z,74.25
2018-07-30T18:17:43.750Z,73.22
2018-07-30T18:20:12.530Z,75.69
2018-07-30T18:22:41.362Z,75.02
2018-07-30T18:25:10.127Z,74.72
2018-07-30T18:27:38.810Z,75.92
2018-07-30T18:30:07.775Z,76.43
2018-07-30T18:32:36.494Z,75.90
2018-07-30T18:35:05.398Z,76.08
2018-07-30T18:37:34.016Z,76.39
2018-07-30T18:40:02.907Z,75.93
2018-07-30T18:42:31.579Z,76.24
2018-07-30T18:45:00.369Z,75.63
2018-07-30T18:47:29.038Z,75.88
2018-07-30T18:49:58.015Z,75.89
2018-07-30T18:52:26.764Z,76.04
2018-07-30T18:54:55.522Z,75.61
2018-07-30T18:57:24.203Z,76.53
2018-07-30T18:59:52.978Z,75.18
2018-07-30T19:02:21.663Z,75.27
2018-07-30T19:04:50.385Z,75.35
2018-07-30T19:07:19.092Z,75.32
2018-07-30T19:09:47.794Z,75.44
2018-07-30T19:12:16.980Z,75.45
2018-07-30T19:14:45.601Z,76.03
2018-07-30T19:17:14.294Z,75.21
2018-07-30T19:19:43.162Z,75.02
2018-07-30T19:22:11.868Z,74.99
2018-07-30T19:24:40.719Z,75.02
2018-07-30T19:27:09.440Z,74.43
2018-07-30T19:29:38.364Z,74.40
2018-07-30T19:32:07.050Z,74.69
2018-07-30T19:34:35.690Z,74.91
2018-07-30T19:37:04.394Z,74.20
2018-07-30T19:39:33.068Z,74.41
2018-07-30T19:42:01.815Z,74.65
2018-07-30T19:44:30.542Z,75.67
2018-07-30T19:46:59.341Z,75.11
2018-07-30T19:49:28.005Z,74.70
2018-07-30T19:51:56.658Z,75.59
2018-07-30T19:54:25.332Z,76.13
2018-07-30T19:56:54.059Z,76.82
2018-07-30T19:59:23.095Z,75.65
2018-07-30T20:01:52.280Z,76.63
2018-07-30T20:04:20.941Z,75.85
2018-07-30T20:06:49.823Z,75.87
2018-07-30T20:09:19.115Z,75.84
2018-07-30T20:11:48.237Z,76.61
2018-07-30T20:14:17.293Z,76.75
2018-07-30T20:16:46.070Z,75.87
2018-07-30T20:19:14.751Z,76.29
2018-07-30T20:21:44.330Z,76.29
2018-07-30T20:24:12.968Z,76.50
2018-07-30T20:26:41.616Z,76.29
2018-07-30T20:29:10.337Z,76.16
2018-07-30T20:31:39.084Z,75.96
2018-07-30T20:34:08.009Z,76.81
2018-07-30T20:36:37.119Z,76.53
2018-07-30T20:39:08.135Z,77.11
2018-07-30T20:41:37.017Z,77.04
2018-07-30T20:44:05.732Z,77.24
2018-07-30T20:46:34.534Z,77.05
2018-07-30T20:49:03.226Z,78.23
2018-07-30T20:51:32.467Z,77.67
2018-07-30T20:54:01.122Z,78.30
2018-07-30T20:56:29.858Z,77.75
2018-07-30T20:58:58.558Z,77.81
2018-07-30T21:01:27.261Z,77.70
2018-07-30T21:03:55.898Z,77.26
2018-07-30T21:06:24.653Z,77.31
2018-07-30T21:08:53.295Z,76.79
2018-07-30T21:11:22.310Z,77.10
2018-07-30T21:13:50.952Z,77.22
2018-07-30T21:16:19.630Z,77.25
2018-07-30T21:18:48.295Z,77.25
2018-07-30T21:21:17.094Z,77.09
2018-07-30T21:23:45.741Z,76.87
2018-07-30T21:26:14.416Z,76.74
2018-07-30T21:28:43.077Z,76.79
2018-07-30T21:31:11.723Z,76.52
2018-07-30T21:33:40.374Z,75.73
2018-07-30T21:36:08.991Z,75.89
2018-07-30T21:38:37.656Z,76.20
2018-07-30T21:41:06.588Z,76.23
2018-07-30T21:43:35.478Z,75.95
2018-07-30T21:46:04.345Z,76.47
2018-07-30T21:48:33.098Z,75.51
2018-07-30T21:51:01.751Z,76.91
2018-07-30T21:53:30.359Z,76.08
2018-07-30T21:55:58.986Z,76.97
2018-07-30T21:58:27.640Z,75.33
2018-07-30T22:00:57.383Z,75.84
2018-07-30T22:03:27.286Z,75.59
2018-07-30T22:05:56.259Z,76.20
2018-07-30T22:08:25.138Z,77.04
2018-07-30T22:10:53.843Z,76.56
2018-07-30T22:13:23.452Z,76.75
2018-07-30T22:15:52.228Z,76.84
2018-07-30T22:18:20.974Z,77.02
2018-07-30T22:20:49.783Z,76.93
2018-07-30T22:23:18.421Z,76.28
2018-07-30T22:25:47.120Z,76.63
2018-07-30T22:28:16.362Z,75.93
2018-07-30T22:30:45.011Z,74.43
2018-07-30T22:33:13.853Z,75.37
2018-07-30T22:35:42.478Z,75.23
2018-07-30T22:38:11.194Z,75.09
2018-07-30T22:40:39.810Z,74.81
2018-07-30T22:45:36.454Z,75.48
2018-07-30T22:48:05.226Z,75.55
2018-07-30T22:50:34.111Z,74.98
2018-07-30T22:53:02.806Z,75.24
2018-07-30T22:55:31.498Z,76.00
2018-07-30T22:58:00.143Z,74.94
2018-07-30T23:00:28.782Z,75.46
2018-07-30T23:02:57.459Z,75.97
2018-07-30T23:05:26.243Z,76.33
2018-07-30T23:07:54.977Z,75.96
2018-07-30T23:10:23.613Z,76.67
2018-07-30T23:12:52.395Z,76.59
2018-07-30T23:15:21.070Z,77.42
2018-07-30T23:17:49.750Z,77.63
2018-07-30T23:20:18.350Z,77.86
2018-07-30T23:22:47.056Z,77.31
2018-07-30T23:25:15.692Z,77.31
2018-07-30T23:27:44.358Z,76.77
2018-07-30T23:30:13.049Z,76.61
2018-07-30T23:32:41.757Z,76.72
2018-07-30T23:36:39.552Z,76.50
2018-07-30T23:39:10.373Z,76.61
2018-07-30T23:41:39.406Z,77.01
2018-07-30T23:44:08.321Z,77.52
2018-07-30T23:46:37.106Z,77.39
2018-07-30T23:49:06.015Z,77.99
2018-07-30T23:51:34.659Z,78.35
2018-07-30T23:54:03.398Z,78.58
2018-07-30T23:56:32.024Z,78.39
2018-07-30T23:59:00.755Z,78.71
